»·PEaware :: DAL1546 KATL-KPHX

DAL1546 :: KATL-KPHX

FLIGHT INFORMATION

Flight Status: Arrived
Operator:
Delta Air Lines
More flights by this operator :: More flights under this callsign
Pilot: David Y. (25336)
Aircraft: BOEING 737-900
(B739)
More flights by this aircraft type
Origin: KATL Hartsfield-Jackson Atlanta
United States
Destination: KPHX Phoenix Sky Harbor Intl
United States
More flights between these airports :: More routes between these airports
Route: CUTTN2 HANKO HAB PBF ADM CDS CNX ZUN EAGUL6
File this flight plan on PilotEdge
Remarks:
Altitude:
(Current/Filed)
34,000ft
Speed:
(Current/Filed)
473kts
Departed: 18-Sep-19 08:50 AM
Arrived: 18-Sep-19 10:16 AM
Distance/Time
Traveled:
1375nm/1:26
Distance/Time
To Go:
Arrived

Flight Plot

Page will automatically refresh every two minutes.

Flight plan parsing failed; only flown route is shown


Map Options




Map Legend


Flown Route
Filed Route
Departure Airport
Arrival Airport
Navaid (VOR, NDB)
Fix

Horizontal Profiles

Position Reports

Time Latitude Longitude Heading Altitude Ground
Speed
18-Sep-19 08:48 34.396928 -102.330684 266 34133ft 406kts
18-Sep-19 08:49 34.397605 -102.469180 266 34132ft 406kts
18-Sep-19 08:50 34.398048 -102.583116 266 34131ft 407kts
18-Sep-19 08:51 34.398410 -102.721968 266 34139ft 406kts
18-Sep-19 08:52 34.398635 -102.860455 266 34137ft 405kts
18-Sep-19 08:53 34.398718 -102.998942 266 34137ft 406kts
18-Sep-19 08:54 34.398653 -103.137231 265 34147ft 405kts
18-Sep-19 08:55 34.398433 -103.274819 265 34152ft 405kts
18-Sep-19 08:56 34.398058 -103.413061 265 34151ft 404kts
18-Sep-19 08:57 34.397556 -103.549152 265 34148ft 396kts
18-Sep-19 08:58 34.396807 -103.683475 264 34160ft 399kts
18-Sep-19 08:59 34.395988 -103.820801 264 34155ft 402kts
18-Sep-19 09:00 34.395018 -103.957862 264 34156ft 402kts
18-Sep-19 09:01 34.393904 -104.094596 264 34159ft 401kts
18-Sep-19 09:02 34.392641 -104.231610 264 34161ft 402kts
18-Sep-19 09:03 34.391218 -104.369510 264 34160ft 403kts
18-Sep-19 09:04 34.389659 -104.506651 265 34159ft 404kts
18-Sep-19 09:05 34.387943 -104.644367 265 34157ft 406kts
18-Sep-19 09:06 34.386103 -104.776026 265 34165ft 406kts
18-Sep-19 09:07 34.384088 -104.913168 265 34172ft 408kts
18-Sep-19 09:08 34.381909 -105.052729 265 34239ft 408kts
18-Sep-19 09:09 34.379533 -105.192827 265 34281ft 410kts
18-Sep-19 09:10 34.376985 -105.333421 265 34280ft 412kts
18-Sep-19 09:11 34.374274 -105.474065 265 34279ft 412kts
18-Sep-19 09:12 34.371398 -105.615044 265 34278ft 414kts
18-Sep-19 09:13 34.381426 -105.755698 278 34285ft 420kts
18-Sep-19 09:14 34.407795 -105.896012 278 34279ft 422kts
18-Sep-19 09:15 34.433837 -106.036389 278 34263ft 422kts
18-Sep-19 09:16 34.459840 -106.177461 278 34254ft 422kts
18-Sep-19 09:17 34.485672 -106.318584 278 34253ft 422kts
18-Sep-19 09:18 34.511216 -106.459102 278 34253ft 421kts
18-Sep-19 09:19 34.536320 -106.598127 278 34252ft 422kts
18-Sep-19 09:20 34.561429 -106.738295 278 34258ft 421kts
18-Sep-19 09:21 34.586509 -106.879162 278 34262ft 421kts
18-Sep-19 09:22 34.611502 -107.020514 278 34272ft 422kts
18-Sep-19 09:23 34.636242 -107.161413 278 34274ft 422kts
18-Sep-19 09:24 34.660784 -107.302177 278 34273ft 422kts
18-Sep-19 09:25 34.685453 -107.444721 278 34272ft 424kts
18-Sep-19 09:26 34.709843 -107.586651 278 34272ft 424kts
18-Sep-19 09:27 34.733998 -107.728361 278 34282ft 424kts
18-Sep-19 09:28 34.758148 -107.871029 278 34292ft 424kts
18-Sep-19 09:29 34.782078 -108.013398 278 34302ft 424kts
18-Sep-19 09:30 34.805841 -108.155832 278 34315ft 423kts
18-Sep-19 09:31 34.829393 -108.298074 278 34317ft 422kts
18-Sep-19 09:32 34.852729 -108.440059 277 34317ft 421kts
18-Sep-19 09:33 34.875911 -108.582188 277 34318ft 421kts
18-Sep-19 09:34 34.898431 -108.721454 277 34324ft 419kts
18-Sep-19 09:35 34.921153 -108.863018 277 34323ft 420kts
18-Sep-19 09:36 34.943392 -109.002504 277 34320ft 420kts
18-Sep-19 09:37 34.951721 -109.144813 266 34305ft 414kts
18-Sep-19 09:38 34.920725 -109.279047 244 34293ft 408kts
18-Sep-19 09:39 34.873812 -109.406923 244 34292ft 408kts
18-Sep-19 09:40 34.826980 -109.534778 244 34286ft 408kts
18-Sep-19 09:41 34.782407 -109.655872 244 34281ft 410kts
18-Sep-19 09:42 34.735927 -109.781105 244 34280ft 409kts
18-Sep-19 09:43 34.689083 -109.907292 244 34276ft 409kts
18-Sep-19 09:44 34.642289 -110.033014 244 34274ft 408kts
18-Sep-19 09:45 34.595583 -110.158084 244 34273ft 407kts
18-Sep-19 09:46 34.548886 -110.282650 244 34281ft 408kts
18-Sep-19 09:47 34.501576 -110.408369 244 33155ft 413kts
18-Sep-19 09:48 34.453643 -110.534547 244 30017ft 418kts
18-Sep-19 09:49 34.407614 -110.655879 244 27339ft 410kts
18-Sep-19 09:50 34.357874 -110.782258 238 24508ft 403kts
18-Sep-19 09:51 34.290497 -110.877972 228 23800ft 352kts
18-Sep-19 09:52 34.222391 -110.965971 228 21105ft 361kts
18-Sep-19 09:53 34.154882 -111.053039 227 18626ft 347kts
18-Sep-19 09:54 34.091440 -111.134524 227 18035ft 326kts
18-Sep-19 09:55 34.029355 -111.214229 227 17997ft 325kts
18-Sep-19 09:56 33.967031 -111.294054 227 17997ft 328kts
18-Sep-19 09:57 33.905630 -111.372512 227 17207ft 318kts
18-Sep-19 09:58 33.853900 -111.454645 238 15477ft 311kts
18-Sep-19 09:59 33.808289 -111.542155 237 13533ft 301kts
18-Sep-19 10:00 33.764917 -111.623881 236 12818ft 281kts
18-Sep-19 10:01 33.722810 -111.702836 235 11316ft 274kts
18-Sep-19 10:02 33.685827 -111.772355 235 10965ft 214kts
18-Sep-19 10:03 33.651805 -111.836400 235 11202ft 236kts
18-Sep-19 10:04 33.616659 -111.902535 235 9935ft 233kts
18-Sep-19 10:05 33.581240 -111.969050 235 8869ft 236kts
18-Sep-19 10:07 33.546072 -112.035014 235 7711ft 233kts
18-Sep-19 10:08 33.526281 -112.107330 265 7016ft 236kts
18-Sep-19 10:09 33.526753 -112.186603 268 6123ft 235kts
18-Sep-19 10:10 33.527301 -112.264362 263 4553ft 229kts
18-Sep-19 10:11 33.488729 -112.269645 123 3663ft 193kts
18-Sep-19 10:12 33.462986 -112.213894 121 3006ft 190kts
18-Sep-19 10:13 33.438689 -112.157830 117 2879ft 181kts
18-Sep-19 10:14 33.429007 -112.103536 89 2141ft 169kts
18-Sep-19 10:15 33.428851 -112.049001 90 1507ft 169kts
18-Sep-19 10:16 33.428859 -112.008125 89 1116ft 38kts
18-Sep-19 10:17 33.430935 -112.003270 358 1116ft 17kts
18-Sep-19 10:18 33.432156 -112.004702 269 1116ft 14kts
18-Sep-19 10:19 33.432541 -112.009996 343 1116ft 2kts
18-Sep-19 10:20 33.434181 -112.009323 74 1116ft 0kts
18-Sep-19 10:21 33.434181 -112.009323 74 1116ft 0kts

Navigation Log

Ident Type
Flight plan parsing failed, navigation log unavailable